createdAt,value
2022-12-05T00:00:20.902Z,96707.56
2022-12-05T00:02:49.315Z,96720.94
2022-12-05T00:05:18.990Z,96733.59
2022-12-05T00:07:48.875Z,96735.78
2022-12-05T00:10:17.941Z,96728.34
2022-12-05T00:12:47.490Z,96721.44
2022-12-05T00:15:15.970Z,96721.50
2022-12-05T00:17:45.856Z,96717.31
2022-12-05T00:20:14.392Z,96714.19
2022-12-05T00:22:43.749Z,96728.28
2022-12-05T00:25:12.295Z,96739.09
2022-12-05T00:27:41.023Z,96734.59
2022-12-05T00:30:10.441Z,96739.13
2022-12-05T00:32:38.802Z,96727.50
2022-12-05T00:35:09.689Z,96731.00
2022-12-05T00:37:38.133Z,96733.28
2022-12-05T00:40:11.220Z,96743.75
2022-12-05T00:42:39.803Z,96738.34
2022-12-05T00:45:11.877Z,96753.69
2022-12-05T00:47:40.297Z,96754.41
2022-12-05T00:50:10.802Z,96765.06
2022-12-05T00:52:39.079Z,96770.78
2022-12-05T00:55:09.655Z,96787.28
2022-12-05T00:57:38.456Z,96787.19
2022-12-05T01:00:10.063Z,96804.38
2022-12-05T01:02:38.554Z,96800.69
2022-12-05T01:05:10.170Z,96790.22
2022-12-05T01:07:38.617Z,96807.50
2022-12-05T01:10:09.000Z,96804.66
2022-12-05T01:12:37.432Z,96804.06
2022-12-05T01:15:07.048Z,96805.81
2022-12-05T01:17:36.172Z,96809.38
2022-12-05T01:20:05.517Z,96813.31
2022-12-05T01:22:35.360Z,96829.84
2022-12-05T01:25:05.177Z,96812.22
2022-12-05T01:27:33.562Z,96816.38
2022-12-05T01:30:02.044Z,96813.97
2022-12-05T01:32:30.547Z,96821.09
2022-12-05T01:34:58.929Z,96811.13
2022-12-05T01:37:27.201Z,96814.81
2022-12-05T01:39:57.382Z,96817.31
2022-12-05T01:42:26.485Z,96809.09
2022-12-05T01:45:11.630Z,96806.41
2022-12-05T01:47:40.479Z,96806.56
2022-12-05T01:50:10.389Z,96810.91
2022-12-05T01:52:40.050Z,96809.00
2022-12-05T01:55:15.033Z,96817.28
2022-12-05T01:57:43.677Z,96815.72
2022-12-05T02:00:16.223Z,96816.78
2022-12-05T02:02:50.897Z,96824.88
2022-12-05T02:05:23.469Z,96839.72
2022-12-05T02:07:52.092Z,96840.53
2022-12-05T02:10:26.351Z,96854.59
2022-12-05T02:12:55.018Z,96852.00
2022-12-05T02:15:38.087Z,96849.78
2022-12-05T02:18:34.107Z,96846.00
2022-12-05T02:21:42.657Z,96841.09
2022-12-05T02:24:48.248Z,96835.88
2022-12-05T02:27:40.979Z,96830.63
2022-12-05T02:30:13.632Z,96825.91
2022-12-05T02:33:08.620Z,96827.72
2022-12-05T02:35:50.757Z,96836.53
2022-12-05T02:38:28.561Z,96835.06
2022-12-05T02:41:08.450Z,96825.69
2022-12-05T02:43:43.178Z,96826.47
2022-12-05T02:46:18.724Z,96819.88
2022-12-05T02:48:49.139Z,96827.44
2022-12-05T02:51:22.702Z,96830.66
2022-12-05T02:53:53.153Z,96823.00
2022-12-05T02:56:23.090Z,96824.34
2022-12-05T02:58:55.923Z,96839.19
2022-12-05T03:01:30.242Z,96838.13
2022-12-05T03:04:01.700Z,96846.63
2022-12-05T03:06:35.528Z,96842.69
2022-12-05T03:09:08.006Z,96840.59
2022-12-05T03:11:42.760Z,96850.00
2022-12-05T03:14:16.468Z,96844.00
2022-12-05T03:16:51.039Z,96851.91
2022-12-05T03:19:26.736Z,96848.72
2022-12-05T03:22:02.360Z,96852.69
2022-12-05T03:24:32.075Z,96842.44
2022-12-05T03:27:10.936Z,96856.81
2022-12-05T03:29:44.388Z,96854.22
2022-12-05T03:32:22.611Z,96850.84
2022-12-05T03:35:00.295Z,96843.22
2022-12-05T03:37:40.705Z,96854.19
2022-12-05T03:40:20.230Z,96863.69
2022-12-05T03:43:03.876Z,96860.47
2022-12-05T03:45:39.850Z,96864.69
2022-12-05T03:48:16.715Z,96866.50
2022-12-05T03:50:49.094Z,96864.94
2022-12-05T03:53:24.011Z,96861.50
2022-12-05T03:56:00.169Z,96846.56
2022-12-05T03:58:34.162Z,96847.03
2022-12-05T04:01:06.557Z,96851.84
2022-12-05T04:03:41.645Z,96842.38
2022-12-05T04:06:18.619Z,96859.50
2022-12-05T04:08:52.974Z,96850.56
2022-12-05T04:11:24.836Z,96855.53
2022-12-05T04:13:57.149Z,96836.09
2022-12-05T04:16:46.016Z,96839.75
2022-12-05T04:19:21.141Z,96834.81
2022-12-05T04:21:52.825Z,96831.31
2022-12-05T04:24:47.000Z,96846.25
2022-12-05T04:27:26.848Z,96849.00
2022-12-05T04:30:02.960Z,96862.88
2022-12-05T04:32:38.851Z,96863.97
2022-12-05T04:35:16.809Z,96865.03
2022-12-05T04:37:50.820Z,96869.97
2022-12-05T04:40:26.279Z,96881.25
2022-12-05T04:42:56.463Z,96864.47
2022-12-05T04:45:27.122Z,96867.84
2022-12-05T04:48:03.861Z,96873.91
2022-12-05T04:50:36.067Z,96871.59
2022-12-05T04:53:05.204Z,96882.59
2022-12-05T04:55:37.991Z,96882.00
2022-12-05T04:58:10.740Z,96876.25
2022-12-05T05:00:48.773Z,96888.63
2022-12-05T05:03:23.163Z,96876.78
2022-12-05T05:05:56.540Z,96879.94
2022-12-05T05:08:28.960Z,96873.03
2022-12-05T05:11:10.023Z,96878.00
2022-12-05T05:13:39.642Z,96885.38
2022-12-05T05:16:09.061Z,96881.78
2022-12-05T05:18:37.688Z,96888.53
2022-12-05T05:21:08.036Z,96892.75
2022-12-05T05:23:36.330Z,96896.59
2022-12-05T05:26:04.677Z,96897.72
2022-12-05T05:28:33.089Z,96891.72
2022-12-05T05:31:04.562Z,96916.59
2022-12-05T05:33:33.073Z,96915.97
2022-12-05T05:36:07.532Z,96933.38
2022-12-05T05:38:38.195Z,96931.53
2022-12-05T05:41:07.305Z,96937.72
2022-12-05T05:43:35.627Z,96930.50
2022-12-05T05:46:05.508Z,96935.94
2022-12-05T05:48:33.996Z,96934.75
2022-12-05T05:51:02.821Z,96944.28
2022-12-05T05:53:40.219Z,96946.97
2022-12-05T05:56:12.666Z,96956.34
2022-12-05T05:58:43.791Z,96952.44
2022-12-05T06:01:16.968Z,96952.13
2022-12-05T06:03:45.922Z,96956.50
2022-12-05T06:06:16.186Z,96956.63
2022-12-05T06:08:47.108Z,96956.22
2022-12-05T06:11:24.848Z,96961.84
2022-12-05T06:13:54.998Z,96956.00
2022-12-05T06:16:23.493Z,96957.06
2022-12-05T06:18:53.404Z,96960.06
2022-12-05T06:21:22.622Z,96966.72
2022-12-05T06:23:53.911Z,96977.25
2022-12-05T06:26:24.009Z,96990.59
2022-12-05T06:28:52.295Z,96992.63
2022-12-05T06:31:24.131Z,96983.72
2022-12-05T06:33:52.487Z,96990.56
2022-12-05T06:36:23.701Z,96985.19
2022-12-05T06:38:53.672Z,96982.53
2022-12-05T06:41:24.431Z,96989.44
2022-12-05T06:44:00.121Z,96994.59
2022-12-05T06:46:30.597Z,97001.47
2022-12-05T06:49:00.055Z,96999.38
2022-12-05T06:51:28.734Z,96997.00
2022-12-05T06:53:58.516Z,96997.81
2022-12-05T06:56:26.903Z,97006.69
2022-12-05T06:58:55.694Z,97012.25
2022-12-05T07:01:41.114Z,97019.38
2022-12-05T07:04:15.436Z,97034.03
2022-12-05T07:06:50.228Z,97027.34
2022-12-05T07:09:22.569Z,97028.13
2022-12-05T07:11:52.051Z,97034.31
2022-12-05T07:14:50.475Z,97031.09
2022-12-05T07:17:08.994Z,97046.81
2022-12-05T07:19:37.694Z,97042.53
2022-12-05T07:22:09.433Z,97057.59
2022-12-05T07:24:43.836Z,97048.31
2022-12-05T07:27:12.227Z,97051.41
2022-12-05T07:29:40.901Z,97052.75
2022-12-05T07:32:09.879Z,97038.88
2022-12-05T07:34:39.502Z,97052.84
2022-12-05T07:37:08.252Z,97058.59
2022-12-05T07:39:36.678Z,97053.72
2022-12-05T07:42:06.496Z,97045.50
2022-12-05T07:44:35.055Z,97052.38
2022-12-05T07:47:03.390Z,97048.19
2022-12-05T07:49:31.871Z,97052.88
2022-12-05T07:52:00.200Z,97060.81
2022-12-05T07:54:28.478Z,97075.72
2022-12-05T07:56:56.778Z,97073.25
2022-12-05T07:59:26.685Z,97081.34
2022-12-05T08:01:55.554Z,97086.09
2022-12-05T08:04:23.884Z,97094.53
2022-12-05T08:06:52.182Z,97089.00
2022-12-05T08:09:20.897Z,97097.41
2022-12-05T08:11:52.588Z,97107.81
2022-12-05T08:14:22.255Z,97094.78
2022-12-05T08:16:52.136Z,97109.47
2022-12-05T08:19:23.424Z,97109.31
2022-12-05T08:21:52.447Z,97107.56
2022-12-05T08:24:20.738Z,97109.97
2022-12-05T08:26:49.028Z,97103.59
2022-12-05T08:29:21.987Z,97100.78
2022-12-05T08:31:53.256Z,97110.91
2022-12-05T08:34:22.675Z,97103.13
2022-12-05T08:36:51.002Z,97109.06
2022-12-05T08:39:20.800Z,97097.09
2022-12-05T08:41:51.317Z,97108.28
2022-12-05T08:44:19.983Z,97102.09
2022-12-05T08:46:51.814Z,97115.03
2022-12-05T08:49:21.079Z,97122.81
2022-12-05T08:51:49.462Z,97120.00
2022-12-05T08:54:18.343Z,97112.69
2022-12-05T08:56:46.715Z,97117.66
2022-12-05T08:59:14.989Z,97121.25
2022-12-05T09:01:44.319Z,97118.06
2022-12-05T09:04:14.157Z,97115.69
2022-12-05T09:06:43.203Z,97125.66
2022-12-05T09:09:13.099Z,97126.53
2022-12-05T09:11:46.921Z,97121.63
2022-12-05T09:14:16.167Z,97122.41
2022-12-05T09:16:47.449Z,97125.81
2022-12-05T09:19:20.826Z,97131.34
2022-12-05T09:21:49.354Z,97138.09
2022-12-05T09:24:17.669Z,97129.16
2022-12-05T09:26:46.630Z,97126.47
2022-12-05T09:29:17.693Z,97122.88
2022-12-05T09:31:48.826Z,97124.59
2022-12-05T09:34:20.092Z,97126.56
2022-12-05T09:37:05.438Z,97143.06
2022-12-05T09:39:39.049Z,97139.50
2022-12-05T09:42:31.175Z,97144.47
2022-12-05T09:45:25.508Z,97134.50
2022-12-05T09:48:00.111Z,97136.16
2022-12-05T09:50:32.370Z,97117.81
2022-12-05T09:53:19.903Z,97122.94
2022-12-05T09:55:53.948Z,97117.94
2022-12-05T09:58:39.750Z,97129.78
2022-12-05T10:01:33.196Z,97126.56
2022-12-05T10:04:34.988Z,97130.75
2022-12-05T10:07:15.364Z,97143.66
2022-12-05T10:09:56.326Z,97120.50
2022-12-05T10:12:48.052Z,97123.19
2022-12-05T10:15:24.898Z,97120.56
2022-12-05T10:18:00.534Z,97128.44
